createdAt,value
2019-06-07T00:01:08.454Z,70.50
2019-06-07T00:05:13.301Z,70.41
2019-06-07T00:09:18.655Z,70.00
2019-06-07T00:13:20.395Z,69.68
2019-06-07T00:17:22.678Z,69.49
2019-06-07T00:22:11.994Z,69.52
2019-06-07T00:25:29.111Z,69.57
2019-06-07T00:29:31.695Z,69.48
2019-06-07T00:33:33.927Z,69.27
2019-06-07T00:37:36.201Z,69.67
2019-06-07T00:41:39.022Z,69.83
2019-06-07T00:45:41.516Z,70.17
2019-06-07T00:49:43.677Z,70.78
2019-06-07T00:53:46.243Z,71.21
2019-06-07T00:57:48.447Z,71.37
2019-06-07T01:01:51.133Z,71.40
2019-06-07T01:05:53.554Z,71.44
2019-06-07T01:09:55.894Z,71.49
2019-06-07T01:13:58.293Z,72.10
2019-06-07T01:18:33.782Z,71.86
2019-06-07T01:22:04.833Z,72.47
2019-06-07T01:26:07.282Z,72.69
2019-06-07T01:30:11.114Z,73.48
2019-06-07T01:34:13.375Z,74.43
2019-06-07T01:38:17.216Z,75.17
2019-06-07T01:42:20.379Z,74.50
2019-06-07T01:46:26.663Z,76.08
2019-06-07T01:50:27.325Z,75.79
2019-06-07T01:58:33.543Z,76.10
2019-06-07T02:02:35.804Z,76.04
2019-06-07T02:06:38.128Z,75.65
2019-06-07T02:10:40.277Z,75.59
2019-06-07T02:14:42.634Z,75.91
2019-06-07T02:19:01.036Z,76.46
2019-06-07T02:22:48.933Z,76.24
2019-06-07T02:26:51.241Z,75.94
2019-06-07T02:31:00.058Z,76.16
2019-06-07T02:34:58.294Z,76.04
2019-06-07T02:39:00.524Z,75.91
2019-06-07T02:43:04.177Z,76.41
2019-06-07T02:47:06.388Z,76.29
2019-06-07T02:51:08.534Z,76.35
2019-06-07T02:55:11.207Z,76.40
2019-06-07T02:59:13.786Z,75.89
2019-06-07T03:03:16.651Z,76.07
2019-06-07T03:07:19.533Z,75.72
2019-06-07T03:11:24.265Z,74.75
2019-06-07T03:15:35.525Z,74.84
2019-06-07T03:19:39.476Z,75.39
2019-06-07T03:23:44.114Z,75.45
2019-06-07T03:27:49.966Z,75.00
2019-06-07T03:31:50.366Z,75.31
2019-06-07T03:35:52.591Z,73.89
2019-06-07T03:39:54.735Z,73.62
2019-06-07T03:43:57.364Z,72.57
2019-06-07T03:47:59.724Z,72.34
2019-06-07T03:52:01.844Z,72.43
2019-06-07T03:56:04.289Z,71.17
2019-06-07T04:00:07.476Z,70.82
2019-06-07T04:04:09.566Z,70.78
2019-06-07T04:08:11.770Z,69.82
2019-06-07T04:12:13.899Z,68.99
2019-06-07T04:16:16.140Z,69.02
2019-06-07T04:20:18.356Z,67.66
2019-06-07T04:24:20.615Z,67.30
2019-06-07T04:28:22.646Z,66.64
2019-06-07T04:32:26.382Z,66.48
2019-06-07T04:36:47.553Z,66.40
2019-06-07T04:40:36.875Z,65.73
2019-06-07T04:44:42.626Z,65.15
2019-06-07T04:48:46.561Z,64.98
2019-06-07T04:52:48.832Z,64.75
2019-06-07T04:56:52.162Z,63.88
2019-06-07T05:01:02.592Z,63.86
2019-06-07T05:04:58.342Z,62.85
2019-06-07T05:09:00.336Z,62.74
2019-06-07T05:13:02.567Z,62.13
2019-06-07T05:17:04.806Z,61.83
2019-06-07T05:21:08.798Z,61.26
2019-06-07T05:25:11.031Z,60.28
2019-06-07T05:29:13.297Z,59.72
2019-06-07T05:33:16.453Z,59.52
2019-06-07T05:37:18.894Z,58.36
2019-06-07T05:41:21.003Z,58.36
2019-06-07T05:45:32.455Z,57.69
2019-06-07T05:49:37.909Z,56.35
2019-06-07T05:53:40.445Z,56.16
2019-06-07T05:57:48.560Z,55.68
2019-06-07T06:01:59.002Z,55.63
2019-06-07T06:05:55.258Z,54.26
2019-06-07T06:09:54.332Z,55.00
2019-06-07T06:14:06.606Z,54.14
2019-06-07T06:18:00.406Z,53.59
2019-06-07T06:22:02.438Z,52.77
2019-06-07T06:26:04.726Z,52.14
2019-06-07T06:30:08.372Z,51.79
2019-06-07T06:34:10.572Z,50.36
2019-06-07T06:38:12.705Z,49.70
2019-06-07T06:42:14.977Z,49.58
2019-06-07T06:46:37.483Z,49.86
2019-06-07T06:50:21.327Z,50.38
2019-06-07T06:54:40.325Z,51.45
2019-06-07T06:58:27.567Z,51.34
2019-06-07T07:02:29.930Z,49.16
2019-06-07T07:06:32.290Z,49.74
2019-06-07T07:10:43.109Z,47.81
2019-06-07T07:14:47.893Z,45.98
2019-06-07T07:18:52.904Z,48.07
2019-06-07T07:22:57.178Z,45.67
2019-06-07T07:26:58.691Z,44.90
2019-06-07T07:31:00.977Z,44.17
2019-06-07T07:35:03.168Z,44.41
2019-06-07T07:39:06.884Z,44.58
2019-06-07T07:43:09.161Z,45.37
2019-06-07T07:47:11.543Z,43.98
2019-06-07T07:51:13.851Z,45.11
2019-06-07T07:55:16.266Z,45.34
2019-06-07T07:59:18.497Z,44.48
2019-06-07T08:03:21.024Z,45.00
2019-06-07T08:07:23.385Z,44.83
2019-06-07T08:11:26.548Z,42.46
2019-06-07T08:15:28.902Z,43.27
2019-06-07T08:19:31.252Z,43.45
2019-06-07T08:23:33.424Z,44.82
2019-06-07T08:27:35.728Z,45.90
2019-06-07T08:31:37.987Z,45.57
2019-06-07T08:36:05.586Z,45.18
2019-06-07T08:39:44.409Z,45.21
2019-06-07T08:43:46.628Z,45.24
2019-06-07T08:47:56.589Z,44.90
2019-06-07T08:51:57.715Z,43.47
2019-06-07T08:56:02.300Z,45.30
2019-06-07T09:00:07.167Z,45.43
2019-06-07T09:04:10.510Z,43.04
2019-06-07T09:08:28.530Z,43.04
2019-06-07T09:12:13.095Z,45.01
2019-06-07T09:16:15.318Z,43.21
2019-06-07T09:20:35.660Z,44.72
2019-06-07T09:24:23.149Z,44.98
2019-06-07T09:28:25.419Z,44.36
2019-06-07T09:32:27.624Z,43.92
2019-06-07T09:36:29.837Z,43.73
2019-06-07T09:40:32.293Z,42.88
2019-06-07T09:44:34.411Z,43.29
2019-06-07T09:52:57.791Z,44.14
2019-06-07T09:56:46.326Z,43.67
2019-06-07T10:00:48.820Z,43.86
2019-06-07T10:04:51.176Z,45.98
2019-06-07T10:12:57.308Z,43.73
2019-06-07T10:17:00.820Z,44.98
2019-06-07T10:21:03.780Z,44.20
2019-06-07T10:25:08.324Z,43.68
2019-06-07T10:29:10.828Z,44.10
2019-06-07T10:33:13.064Z,43.89
2019-06-07T10:37:15.876Z,43.53
2019-06-07T10:41:18.115Z,44.21
2019-06-07T10:45:20.502Z,44.97
2019-06-07T10:49:22.724Z,45.24
2019-06-07T10:53:24.828Z,44.36
2019-06-07T10:57:27.185Z,43.72
2019-06-07T11:01:29.375Z,44.79
2019-06-07T11:05:31.493Z,43.68
2019-06-07T11:09:34.083Z,44.04
2019-06-07T11:13:36.368Z,43.83
2019-06-07T11:17:38.588Z,43.10
2019-06-07T11:21:40.634Z,45.85
2019-06-07T11:25:42.971Z,44.15
2019-06-07T11:29:45.085Z,43.97
2019-06-07T11:33:47.364Z,44.99
2019-06-07T11:37:49.648Z,45.85
2019-06-07T11:41:51.762Z,46.28
2019-06-07T11:45:54.032Z,46.62
2019-06-07T11:49:56.337Z,45.61
2019-06-07T11:53:58.504Z,46.58
2019-06-07T11:58:00.809Z,46.21
2019-06-07T12:02:03.143Z,46.95
2019-06-07T12:06:05.387Z,46.75
2019-06-07T12:10:08.544Z,47.01
2019-06-07T12:14:12.900Z,48.64
2019-06-07T12:18:15.220Z,46.09
2019-06-07T12:22:17.960Z,47.42
2019-06-07T12:26:20.688Z,48.31
2019-06-07T12:30:27.775Z,47.88
2019-06-07T12:34:27.023Z,44.75
2019-06-07T12:38:30.191Z,46.32
2019-06-07T12:42:32.616Z,46.19
2019-06-07T12:46:36.021Z,44.70
2019-06-07T12:50:43.126Z,46.13
2019-06-07T12:54:42.341Z,48.26
2019-06-07T12:58:44.532Z,46.05
2019-06-07T13:02:46.720Z,45.91
2019-06-07T13:06:48.978Z,47.46
2019-06-07T13:10:52.224Z,46.67
2019-06-07T13:14:54.561Z,43.06
2019-06-07T13:18:56.966Z,42.70
2019-06-07T13:22:59.225Z,43.16
2019-06-07T13:27:01.451Z,45.50
2019-06-07T13:31:03.602Z,45.38
2019-06-07T13:35:06.151Z,45.95
2019-06-07T13:39:08.954Z,45.82
2019-06-07T13:43:11.282Z,47.14
2019-06-07T13:47:13.428Z,47.97
2019-06-07T13:51:15.708Z,47.03
2019-06-07T13:55:19.774Z,46.84
2019-06-07T13:59:22.361Z,48.55
2019-06-07T14:03:29.305Z,48.33
2019-06-07T14:07:29.958Z,46.24
2019-06-07T14:11:49.386Z,44.23
2019-06-07T14:15:37.409Z,42.96
2019-06-07T14:19:39.567Z,41.34
2019-06-07T14:23:48.656Z,40.79
2019-06-07T14:27:45.641Z,40.03
2019-06-07T14:31:47.866Z,42.10
2019-06-07T14:35:50.015Z,41.66
2019-06-07T14:39:52.244Z,41.01
2019-06-07T14:43:54.377Z,38.47
2019-06-07T14:47:56.374Z,38.22
2019-06-07T14:51:58.390Z,37.63
2019-06-07T14:56:00.567Z,37.43
2019-06-07T15:00:10.383Z,37.72
2019-06-07T15:04:06.443Z,36.71
2019-06-07T15:08:08.593Z,37.26
2019-06-07T15:12:24.193Z,36.83
2019-06-07T15:16:14.416Z,36.71
2019-06-07T15:20:16.646Z,35.96
2019-06-07T15:24:18.571Z,36.00
2019-06-07T15:28:20.636Z,36.24
2019-06-07T15:32:23.575Z,37.81
2019-06-07T15:36:26.023Z,40.48
2019-06-07T15:40:29.028Z,40.50
2019-06-07T15:44:31.224Z,37.90
2019-06-07T15:48:33.988Z,37.39
2019-06-07T15:52:38.090Z,38.03
2019-06-07T15:56:41.326Z,39.04
2019-06-07T16:00:43.422Z,42.03
2019-06-07T16:04:45.329Z,43.52
2019-06-07T16:08:47.286Z,44.11
2019-06-07T16:12:59.495Z,45.34
2019-06-07T16:16:52.734Z,46.70
2019-06-07T16:20:54.840Z,46.78
2019-06-07T16:24:56.933Z,47.53
2019-06-07T16:28:59.140Z,47.40
2019-06-07T16:33:01.121Z,46.01
2019-06-07T16:37:03.149Z,45.83
2019-06-07T16:41:05.640Z,46.20
2019-06-07T16:45:08.950Z,45.61
2019-06-07T16:49:11.032Z,45.82
2019-06-07T16:53:13.081Z,47.11
2019-06-07T16:57:15.125Z,47.80
2019-06-07T17:01:16.960Z,47.56
2019-06-07T17:05:19.248Z,47.67
2019-06-07T17:09:21.321Z,48.04
2019-06-07T17:13:32.913Z,47.79
2019-06-07T17:17:27.371Z,47.86
2019-06-07T17:21:32.015Z,48.61
2019-06-07T17:25:33.845Z,48.99
2019-06-07T17:29:36.226Z,48.42
2019-06-07T17:33:38.166Z,49.03
2019-06-07T17:37:42.264Z,48.90
2019-06-07T17:41:56.180Z,48.90
2019-06-07T17:45:47.623Z,49.46
2019-06-07T17:49:50.044Z,49.18
2019-06-07T17:53:52.129Z,49.84
2019-06-07T17:57:53.947Z,51.66
2019-06-07T18:02:13.608Z,51.66
2019-06-07T18:06:01.383Z,50.85
2019-06-07T18:10:06.554Z,50.32
2019-06-07T18:14:11.124Z,50.78
2019-06-07T18:18:14.945Z,50.72
2019-06-07T18:22:17.329Z,51.22
2019-06-07T18:26:19.555Z,51.22
2019-06-07T18:30:21.902Z,52.77
2019-06-07T18:34:24.327Z,53.13
2019-06-07T18:38:26.692Z,53.93
2019-06-07T18:42:29.115Z,54.54
2019-06-07T18:46:31.538Z,55.36
2019-06-07T18:50:33.884Z,55.87
2019-06-07T18:54:36.103Z,57.03
2019-06-07T18:58:38.668Z,58.41
2019-06-07T19:02:44.253Z,58.82
2019-06-07T19:06:46.564Z,58.82
2019-06-07T19:10:50.707Z,59.70
2019-06-07T19:14:53.331Z,59.07
2019-06-07T19:18:55.884Z,58.86
2019-06-07T19:23:00.553Z,58.44
2019-06-07T19:27:02.861Z,58.64
2019-06-07T19:31:06.312Z,59.01
2019-06-07T19:35:09.707Z,59.72
2019-06-07T19:39:11.991Z,61.14
2019-06-07T19:43:14.237Z,61.34
2019-06-07T19:47:16.648Z,61.29
2019-06-07T19:51:20.410Z,61.89
2019-06-07T19:55:22.964Z,61.99
2019-06-07T19:59:25.491Z,62.69
2019-06-07T20:03:28.738Z,62.36
2019-06-07T20:07:31.035Z,62.50
2019-06-07T20:11:33.348Z,63.15
2019-06-07T20:15:35.655Z,63.55
2019-06-07T20:19:37.985Z,63.04
2019-06-07T20:23:40.362Z,63.08
2019-06-07T20:27:42.672Z,63.05
2019-06-07T20:31:44.807Z,63.19
2019-06-07T20:35:47.107Z,63.91
2019-06-07T20:39:49.276Z,63.48
2019-06-07T20:43:51.658Z,63.58
2019-06-07T20:47:53.815Z,63.99
2019-06-07T20:51:56.142Z,63.73
2019-06-07T20:55:58.493Z,63.95
2019-06-07T21:00:02.584Z,64.56
2019-06-07T21:04:07.326Z,64.52
2019-06-07T21:08:12.663Z,65.27
2019-06-07T21:12:13.430Z,64.90
2019-06-07T21:16:15.920Z,64.85
2019-06-07T21:20:18.172Z,64.99
2019-06-07T21:24:20.439Z,64.92
2019-06-07T21:28:22.650Z,64.99
2019-06-07T21:32:24.976Z,65.47
2019-06-07T21:36:27.191Z,65.58
2019-06-07T21:40:29.463Z,66.14
2019-06-07T21:44:31.698Z,66.64
2019-06-07T21:48:34.118Z,67.18
2019-06-07T21:52:36.270Z,68.55
2019-06-07T21:56:38.499Z,67.62
2019-06-07T22:01:09.972Z,68.50
2019-06-07T22:05:14.801Z,69.14
2019-06-07T22:09:17.150Z,70.12
2019-06-07T22:13:19.516Z,70.87
2019-06-07T22:17:21.697Z,71.32
2019-06-07T22:21:25.149Z,71.44
2019-06-07T22:25:28.806Z,72.07
2019-06-07T22:29:31.166Z,72.28
2019-06-07T22:33:33.501Z,73.35
2019-06-07T22:37:35.713Z,73.50
2019-06-07T22:41:38.039Z,73.50
2019-06-07T22:45:40.897Z,73.59
2019-06-07T22:49:43.245Z,73.54
2019-06-07T22:53:48.327Z,73.82
2019-06-07T22:57:58.366Z,74.66
2019-06-07T23:02:00.698Z,74.93
2019-06-07T23:06:02.915Z,75.36
2019-06-07T23:10:05.850Z,75.37
2019-06-07T23:14:09.179Z,75.96
2019-06-07T23:18:11.478Z,76.46
2019-06-07T23:22:13.886Z,77.36
2019-06-07T23:26:16.412Z,77.36
2019-06-07T23:30:21.694Z,76.99
2019-06-07T23:34:24.242Z,77.01
2019-06-07T23:38:26.816Z,78.28
2019-06-07T23:42:29.325Z,78.06
2019-06-07T23:46:31.429Z,78.49
2019-06-07T23:50:33.648Z,78.84
2019-06-07T23:54:36.008Z,79.13
2019-06-07T23:58:38.357Z,79.46
